Sturgeon Falls, Canada
Current Conditions -  °F | °C
As of 5:46 AM on Saturday 25 Oct 2014 (Local Time) from CYYB Reporting Station
Haze Haze  
Wind Chill: 41°   Ceiling: 200
Heat Index: 46°   Visibility: 2mi
Dew Point: 45°   Wind: 10mph
Humidity: 93%   Direction: 200°SSW
Pressure: 29.7"   Gusts: NA
Location:  46.37°N, 79.93°W
Report Text: CYYB 250946Z AUTO 20009KT 2SM BR BKN002 OVC017 08/07 A2970 RMK SLP063
Loading
Personal Weather Stations






























Interactive Weather Map New forecast layout! Learn more

10-Day Weather Forecast

Advertisements
Track Severe Weather on mobile